Latest Weather Observations for Nerriga

IDN60801

Issued at 9:05 am EDT Thursday 23 October 2014 (issued every 30 minutes, with the page automatically refreshed every 10 minutes)

About weather observations | Map of weather stations | Latest weather observations for NSW | Other Formats
Station Details ID: 069128 Name: NERRIGA AWS Lat: -35.11 Lon: 150.08 Height: 622.0 m
Data from the previous 72 hours. | See also: Recent months at Nerriga
Date/Time
EDT
Temp
°C
App
Temp
°C
Dew
Point
Rel
Hum
%
Delta-T
°C
Wind Press
QNH
hPa
Press
MSL
hPa
Rain
since 9 am
mm
Dir
 
Spd
km/h
Gust
km/h
Spd
kts
Gust
kts
23/09:00am 19.9 19.7 12.9 64 4.1 WNW 6 9 3 5 1020.1 1019.4 0.0
23/08:30am 18.6 20.0 14.5 77 2.4 NW 0 4 0 2 1020.1 1019.4 0.0
23/08:00am 16.3 16.8 15.0 92 0.8 NW 6 9 3 5 1020.4 1019.6 0.0
23/07:30am 14.0 14.8 13.7 98 0.2 NNW 2 4 1 2 1019.8 1019.1 0.0
23/07:00am 11.9 12.4 11.6 98 0.2 CALM 0 4 0 2 1019.9 1019.2 0.0
23/06:30am 10.8 11.0 10.5 98 0.2 CALM 0 0 0 0 1019.8 1019.1 0.0
23/06:00am 11.3 11.6 11.0 98 0.2 NNW 0 0 0 0 1019.6 1018.8 0.0
23/05:30am 11.4 11.0 11.1 98 0.2 NNW 4 4 2 2 1019.3 1018.5 0.0
23/05:00am 10.8 11.0 10.5 98 0.2 CALM 0 0 0 0 1019.1 1018.3 0.0
23/04:30am 10.6 10.7 10.3 98 0.2 CALM 0 0 0 0 1018.9 1018.1 0.0
23/04:00am 11.6 12.0 11.3 98 0.2 CALM 0 0 0 0 1018.7 1017.9 0.0
23/03:30am 10.7 10.9 10.4 98 0.2 CALM 0 0 0 0 1018.9 1018.1 0.0
23/03:00am 11.6 12.0 11.3 98 0.2 CALM 0 0 0 0 1019.1 1018.3 0.0
23/02:30am 12.3 12.9 12.0 98 0.2 CALM 0 0 0 0 1019.3 1018.5 0.0
23/02:00am 13.2 14.0 12.6 96 0.3 CALM 0 0 0 0 1019.7 1018.9 0.0
23/01:30am 13.1 13.4 12.3 95 0.4 NNW 2 4 1 2 1019.7 1018.9 0.0
23/01:00am 13.3 14.1 12.4 94 0.5 CALM 0 0 0 0 1020.0 1019.3 0.0
23/12:30am 13.2 14.0 12.4 95 0.4 CALM 0 0 0 0 1020.1 1019.4 0.0
23/12:00am 13.4 14.0 12.0 91 0.8 NNW 0 0 0 0 1020.2 1019.5 0.0
 
Date/Time
EDT
Temp
°C
App
Temp
°C
Dew
Point
Rel
Hum
%
Delta-T
°C
Wind Press
QNH
hPa
Press
MSL
hPa
Rain
since 9 am
mm
Dir
 
Spd
km/h
Gust
km/h
Spd
kts
Gust
kts
22/11:30pm 13.8 14.4 12.0 89 1.0 CALM 0 0 0 0 1020.5 1019.7 0.0
22/11:00pm 14.1 14.8 12.1 88 1.1 CALM 0 0 0 0 1020.6 1019.8 0.0
22/10:30pm 14.2 14.6 11.4 83 1.5 CALM 0 0 0 0 1020.6 1019.8 0.0
22/10:00pm 15.1 15.3 11.9 81 1.8 NNW 2 4 1 2 1020.6 1019.8 0.0
22/09:30pm 15.9 16.1 11.7 76 2.3 NNW 2 4 1 2 1020.6 1019.8 0.0
22/09:00pm 17.7 17.9 11.7 68 3.4 NNW 2 6 1 3 1020.6 1019.8 0.0
22/08:30pm 19.1 18.6 12.1 64 4.0 NNW 6 7 3 4 1020.1 1019.4 0.0
22/08:00pm 19.4 18.9 12.7 65 3.9 NNW 7 11 4 6 1020.0 1019.3 0.0
22/07:30pm 19.7 19.2 12.7 64 4.1 NNW 7 9 4 5 1019.9 1019.2 0.0
22/07:00pm 21.3 19.8 13.0 59 4.9 NNW 13 17 7 9 1019.7 1018.9 0.0
22/06:30pm 22.2 20.3 13.0 56 5.4 NNW 15 20 8 11 1019.5 1018.7 0.0
22/06:00pm 23.6 22.1 12.0 48 6.8 WNW 11 15 6 8 1019.4 1018.6 0.0
22/05:30pm 24.2 21.4 10.1 41 8.0 W 15 20 8 11 1019.5 1018.7 0.0
22/05:00pm 24.2 21.5 10.5 42 7.8 W 15 26 8 14 1019.5 1018.7 0.0
22/04:30pm 24.8 23.0 12.1 45 7.5 WNW 13 26 7 14 1019.6 1018.8 0.0
22/04:00pm 24.6 22.1 11.2 43 7.7 NW 15 19 8 10 1019.8 1019.1 0.0
22/03:30pm 24.4 23.5 13.6 51 6.5 NNW 11 24 6 13 1020.2 1019.5 0.0
22/03:00pm 23.9 21.3 13.2 51 6.4 WNW 19 32 10 17 1020.7 1019.9 0.0
22/02:30pm 22.9 20.3 11.9 50 6.4 NW 17 26 9 14 1021.1 1020.3 0.0
22/02:00pm 22.6 19.4 12.0 51 6.1 NW 20 33 11 18 1021.7 1021.0 0.0
22/01:30pm 21.3 20.2 11.9 55 5.4 NNW 9 17 5 9 1022.4 1021.6 0.0
22/01:00pm 20.0 18.4 11.5 58 4.8 N 11 17 6 9 1023.0 1022.3 0.0
22/12:30pm 19.2 18.5 12.0 63 4.1 N 7 19 4 10 1023.6 1022.9 0.0
22/12:00pm 17.6 15.9 10.0 61 4.1 N 9 15 5 8 1024.2 1023.5 0.0
22/11:30am 16.9 15.4 10.5 66 3.5 N 9 15 5 8 1024.8 1024.1 0.0
22/11:00am 15.7 13.9 9.4 66 3.3 N 9 19 5 10 1025.2 1024.5 0.0
22/10:30am 14.3 12.3 8.7 69 2.9 N 9 17 5 9 1025.7 1025.0 0.0
22/10:00am 13.6 10.6 9.1 74 2.3 NNW 15 20 8 11 1026.0 1025.3 0.0
22/09:30am 12.5 9.2 8.2 75 2.2 NNW 15 19 8 10 1026.0 1025.3 0.0
22/09:00am 11.7 8.4 8.2 79 1.8 N 15 22 8 12 1026.1 1025.4 0.0
22/08:30am 10.8 7.8 7.9 82 1.5 N 13 19 7 10 1026.1 1025.4 0.0
22/08:00am 9.8 7.7 8.2 90 0.8 NNE 9 13 5 7 1026.3 1025.6 0.0
22/07:30am 8.2 6.5 7.6 96 0.3 NE 6 6 3 3 1026.4 1025.7 0.0
22/07:00am 7.4 5.6 7.1 98 0.1 NE 6 9 3 5 1026.4 1025.7 0.0
22/06:30am 5.5 3.7 5.2 98 0.1 NE 4 6 2 3 1026.5 1025.8 0.0
22/06:00am 5.6 4.5 5.3 98 0.1 CALM 0 2 0 1 1026.5 1025.8 0.0
22/05:30am 6.0 4.3 5.7 98 0.1 NE 4 6 2 3 1026.3 1025.6 0.0
22/05:00am 7.2 6.4 6.5 95 0.3 CALM 0 4 0 2 1026.6 1025.9 0.0
22/04:30am 7.8 5.8 7.1 95 0.3 ENE 7 9 4 5 1026.5 1025.8 0.0
22/04:00am 8.8 7.1 7.7 93 0.5 ENE 6 7 3 4 1026.8 1026.2 0.0
22/03:30am 8.8 7.5 7.7 93 0.5 ENE 4 6 2 3 1027.4 1026.7 0.0
22/03:00am 8.7 7.4 7.6 93 0.5 ENE 4 6 2 3 1027.7 1027.0 0.0
22/02:30am 8.8 6.1 7.4 91 0.7 ENE 11 15 6 8 1028.1 1027.5 0.0
22/02:00am 9.1 6.4 7.5 90 0.8 ENE 11 15 6 8 1028.4 1027.8 0.0
22/01:30am 8.9 6.5 7.2 89 0.8 NE 9 13 5 7 1028.9 1028.2 0.0
22/01:00am 9.4 6.6 7.0 85 1.2 NE 11 15 6 8 1029.3 1028.6 0.0
22/12:30am 9.9 7.6 7.3 84 1.3 NE 9 13 5 7 1029.8 1029.2 0.0
22/12:00am 10.0 7.7 7.4 84 1.3 NE 9 13 5 7 1030.2 1029.6 0.0
 
Date/Time
EDT
Temp
°C
App
Temp
°C
Dew
Point
Rel
Hum
%
Delta-T
°C
Wind Press
QNH
hPa
Press
MSL
hPa
Rain
since 9 am
mm
Dir
 
Spd
km/h
Gust
km/h
Spd
kts
Gust
kts
21/11:30pm 10.1 8.1 7.3 83 1.4 NE 7 11 4 6 1030.7 1030.0 0.0
21/11:00pm 10.1 7.8 7.3 83 1.4 NE 9 13 5 7 1030.8 1030.1 0.0
21/10:30pm 10.1 7.4 7.5 84 1.3 NE 11 15 6 8 1030.9 1030.3 0.0
21/10:00pm 10.2 7.1 7.4 83 1.4 ENE 13 17 7 9 1031.0 1030.4 0.0
21/09:30pm 10.2 6.8 7.6 84 1.3 ENE 15 19 8 10 1030.9 1030.3 0.0
21/09:00pm 10.1 7.1 7.9 86 1.1 E 13 17 7 9 1030.8 1030.1 0.0
21/08:30pm 10.1 6.4 7.9 86 1.1 ENE 17 24 9 13 1030.7 1030.0 0.0
21/08:00pm 10.2 7.9 7.6 84 1.3 ENE 9 17 5 9 1030.4 1029.8 0.0
21/07:30pm 10.3 8.0 7.5 83 1.4 E 9 13 5 7 1030.1 1029.5 0.0
21/07:00pm 10.5 7.9 7.9 84 1.3 E 11 15 6 8 1030.0 1029.4 0.0
21/06:30pm 10.9 8.8 8.1 83 1.4 ENE 9 13 5 7 1029.8 1029.2 0.0
21/06:00pm 11.1 8.6 8.3 83 1.4 NE 11 17 6 9 1029.8 1029.2 0.0
21/05:30pm 11.3 8.9 8.5 83 1.4 E 11 15 6 8 1029.8 1029.2 0.0
21/05:00pm 11.5 8.3 8.5 82 1.5 ENE 15 22 8 12 1029.8 1029.2 0.0
21/04:30pm 11.8 8.2 8.5 80 1.7 ENE 17 22 9 12 1029.9 1029.3 0.0
21/04:00pm 11.9 8.7 8.4 79 1.8 ENE 15 20 8 11 1030.0 1029.4 0.0
21/03:30pm 11.8 8.9 8.3 79 1.8 E 13 19 7 10 1030.3 1029.7 0.0
21/03:00pm 11.8 8.2 8.3 79 1.8 ENE 17 24 9 13 1030.7 1030.0 0.0
21/02:30pm 12.2 8.8 7.5 73 2.4 ENE 15 19 8 10 1030.8 1030.1 0.0
21/02:00pm 12.8 9.5 8.1 73 2.4 ENE 15 24 8 13 1031.1 1030.5 0.0
21/01:30pm 12.4 8.8 8.5 77 2.0 E 17 20 9 11 1031.6 1031.0 0.0
21/01:00pm 12.1 9.3 7.0 71 2.5 E 11 19 6 10 1032.0 1031.4 0.0
21/12:30pm 11.6 7.8 7.5 76 2.1 ENE 17 22 9 12 1032.5 1031.9 0.0
21/12:00pm 11.9 8.7 6.8 71 2.5 E 13 20 7 11 1032.6 1032.0 0.0
21/11:30am 12.3 8.8 7.0 70 2.6 ENE 15 24 8 13 1032.8 1032.2 0.0
21/11:00am 11.8 7.7 6.3 69 2.7 ENE 17 22 9 12 1032.9 1032.3 0.0
21/10:30am 12.0 8.0 6.7 70 2.6 E 17 24 9 13 1033.0 1032.4 0.0
21/10:00am 11.4 7.7 6.3 71 2.5 E 15 24 8 13 1033.1 1032.5 0.0
21/09:30am 11.5 7.5 6.8 73 2.3 E 17 26 9 14 1032.9 1032.3 0.0
21/09:00am 10.7 6.6 6.3 74 2.1 E 17 24 9 13 1032.8 1032.2 0.0
21/08:30am 10.3 6.6 6.5 77 1.8 ESE 15 20 8 11 1032.6 1032.0 0.0
21/08:00am 9.6 6.3 6.5 81 1.5 E 13 20 7 11 1032.3 1031.7 0.0
21/07:30am 9.1 5.2 7.1 87 1.0 ESE 17 22 9 12 1031.9 1031.3 0.0
21/07:00am 8.8 4.3 6.8 87 1.0 ESE 20 28 11 15 1031.5 1030.9 0.0
21/06:30am 8.7 4.4 7.0 89 0.8 E 19 22 10 12 1031.3 1030.7 0.0
21/06:00am 8.7 4.7 6.7 87 1.0 E 17 22 9 12 1031.1 1030.5 0.0
21/05:30am 8.8 4.2 6.4 85 1.1 E 20 28 11 15 1030.9 1030.3 0.0
21/05:00am 8.7 3.8 6.7 87 1.0 ESE 22 30 12 16 1030.9 1030.3 0.0
21/04:30am 8.8 3.9 6.9 88 0.9 ESE 22 30 12 16 1030.9 1030.3 0.0
21/04:00am 8.6 4.7 7.2 91 0.7 ESE 17 22 9 12 1031.1 1030.5 0.0
21/03:30am 8.6 5.5 7.4 92 0.6 ESE 13 19 7 10 1031.4 1030.8 0.0
21/03:00am 8.5 5.5 7.9 96 0.3 ESE 13 20 7 11 1031.5 1030.9 0.0
21/02:30am 8.6 5.2 7.7 94 0.4 ESE 15 22 8 12 1031.6 1031.0 0.0
21/02:00am 8.6 5.6 7.5 93 0.5 ESE 13 20 7 11 1031.8 1031.2 0.0
21/01:30am 8.6 4.9 8.0 96 0.3 ESE 17 22 9 12 1031.9 1031.3 0.0
21/01:00am 8.8 4.8 8.4 97 0.2 ESE 19 26 10 14 1032.0 1031.4 0.0
21/12:30am 8.8 4.9 8.5 98 0.2 ESE 19 24 10 13 1032.3 1031.7 0.0
21/12:00am 8.8 4.8 8.4 97 0.2 ESE 19 24 10 13 1032.4 1031.8 0.0
 
Date/Time
EDT
Temp
°C
App
Temp
°C
Dew
Point
Rel
Hum
%
Delta-T
°C
Wind Press
QNH
hPa
Press
MSL
hPa
Rain
since 9 am
mm
Dir
 
Spd
km/h
Gust
km/h
Spd
kts
Gust
kts
20/11:30pm 8.9 5.0 8.5 97 0.2 ESE 19 24 10 13 1032.4 1031.8 0.0
20/11:00pm 8.8 5.6 8.5 98 0.1 ESE 15 20 8 11 1032.5 1031.9 0.0
20/10:30pm 8.8 5.2 8.5 98 0.2 ESE 17 22 9 12 1032.6 1032.0 0.0
20/10:00pm 8.8 5.6 8.5 98 0.1 ESE 15 22 8 12 1032.6 1032.0 0.0
20/09:30pm 8.9 5.7 8.6 98 0.2 ESE 15 22 8 12 1032.6 1032.0 0.0
20/09:00pm 8.9 5.4 8.6 98 0.1 E 17 22 9 12 1032.4 1031.8 0.0
20/08:30pm 9.0 6.2 8.7 98 0.2 ESE 13 17 7 9 1032.0 1031.4 0.0
20/08:00pm 9.1 6.7 8.8 98 0.2 ESE 11 20 6 11 1031.8 1031.2 0.0
20/07:30pm 9.4 7.0 8.6 95 0.4 E 11 17 6 9 1031.5 1030.9 0.0
20/07:00pm 9.6 7.1 8.4 92 0.6 ESE 11 17 6 9 1031.4 1030.8 0.0
20/06:30pm 9.6 6.3 8.0 90 0.8 ESE 15 20 8 11 1031.1 1030.5 0.0
20/06:00pm 9.9 6.6 8.2 89 0.8 ESE 15 26 8 14 1030.9 1030.3 0.0
20/05:30pm 10.1 6.5 8.5 90 0.8 ESE 17 24 9 13 1030.8 1030.1 0.0
20/05:00pm 9.9 6.1 9.1 95 0.4 ESE 19 28 10 15 1030.8 1030.1 0.0
20/04:30pm 10.8 6.9 8.6 86 1.1 ESE 19 28 10 15 1030.6 1029.9 0.0
20/04:00pm 10.6 6.5 8.7 88 1.0 ESE 20 35 11 19 1030.6 1029.9 0.0
20/03:30pm 10.5 6.4 8.6 88 1.0 SE 20 28 11 15 1030.6 1029.9 0.0
20/03:00pm 11.2 7.0 8.2 82 1.5 SE 20 30 11 16 1030.7 1030.0 0.0
20/02:30pm 11.6 7.5 8.5 81 1.6 ESE 20 30 11 16 1030.8 1030.1 0.0
20/02:00pm 11.5 7.6 8.5 82 1.5 SE 19 28 10 15 1031.0 1030.4 0.0
20/01:30pm 12.0 7.9 8.7 80 1.7 SE 20 28 11 15 1030.9 1030.3 0.0
20/01:00pm 12.0 8.4 8.5 79 1.8 SE 17 26 9 14 1031.1 1030.5 0.0
20/12:30pm 12.2 8.3 8.7 79 1.8 SE 19 30 10 16 1031.1 1030.5 0.0
20/12:00pm 12.0 7.8 8.3 78 1.9 SE 20 33 11 18 1031.3 1030.7 0.0
20/11:30am 11.7 7.0 7.8 77 2.0 SE 22 30 12 16 1031.4 1030.8 0.0
20/11:00am 11.6 7.9 7.9 78 1.9 SE 17 28 9 15 1031.3 1030.7 0.0
20/10:30am 11.0 5.5 7.7 80 1.7 SE 26 35 14 19 1031.2 1030.6 0.0
20/10:00am 10.7 5.2 7.6 81 1.5 SE 26 35 14 19 1031.0 1030.4 0.0
20/09:30am 11.0 6.5 8.4 84 1.3 SE 22 32 12 17 1030.7 1030.0 0.0

Other Formats:

Comma delimited format used in spreadsheet applications
http://www.bom.gov.au/fwo/IDN60801/IDN60801.94943.axf

JavaScript Object Notation format (JSON) in row-major order
http://www.bom.gov.au/fwo/IDN60801/IDN60801.94943.json